createdAt,value
2018-11-06T00:01:42.272Z,9.50
2018-11-06T00:04:09.683Z,9.30
2018-11-06T00:06:37.122Z,9.20
2018-11-06T00:09:06.587Z,9.20
2018-11-06T01:12:09.471Z,9.00
2018-11-06T01:14:36.908Z,9.00
2018-11-06T01:17:04.552Z,9.00
2018-11-06T01:19:31.980Z,9.10
2018-11-06T01:21:59.445Z,9.10
2018-11-06T01:24:26.880Z,9.20
2018-11-06T01:26:54.287Z,9.30
2018-11-06T01:29:21.723Z,9.30
2018-11-06T01:31:49.192Z,9.30
2018-11-06T01:34:16.633Z,9.30
2018-11-06T01:36:44.036Z,9.30
2018-11-06T01:39:11.476Z,9.30
2018-11-06T01:41:38.919Z,9.30
2018-11-06T01:44:06.385Z,9.20
2018-11-06T01:46:33.832Z,9.30
2018-11-06T01:49:01.246Z,9.30
2018-11-06T01:51:28.690Z,9.40
2018-11-06T01:53:56.122Z,9.40
2018-11-06T01:56:23.527Z,9.40
2018-11-06T01:58:50.988Z,9.30
2018-11-06T02:01:18.428Z,9.30
2018-11-06T02:03:45.868Z,9.20
2018-11-06T02:06:13.271Z,9.00
2018-11-06T02:08:40.701Z,8.70
2018-11-06T02:11:08.140Z,8.60
2018-11-06T02:13:35.603Z,8.60
2018-11-06T02:16:03.030Z,8.60
2018-11-06T02:18:30.446Z,8.60
2018-11-06T02:20:57.971Z,8.50
2018-11-06T02:23:25.416Z,8.60
2018-11-06T02:25:52.829Z,8.70
2018-11-06T02:28:20.282Z,8.80
2018-11-06T02:30:47.728Z,8.80
2018-11-06T02:33:15.179Z,8.80
2018-11-06T02:35:42.603Z,8.80
2018-11-06T02:38:10.103Z,8.70
2018-11-06T02:40:37.557Z,8.70
2018-11-06T02:43:04.967Z,8.70
2018-11-06T02:45:32.400Z,8.80
2018-11-06T02:47:59.821Z,8.70
2018-11-06T02:50:27.261Z,8.80
2018-11-06T02:52:54.695Z,8.90
2018-11-06T02:55:22.130Z,8.90
2018-11-06T02:57:49.547Z,8.80
2018-11-06T03:00:16.885Z,8.80
2018-11-06T03:02:44.340Z,8.80
2018-11-06T03:05:11.674Z,8.80
2018-11-06T03:07:39.037Z,8.70
2018-11-06T03:10:06.954Z,8.80
2018-11-06T03:12:34.319Z,8.90
2018-11-06T03:15:01.693Z,8.90
2018-11-06T03:17:29.074Z,8.80
2018-11-06T03:19:56.436Z,8.80
2018-11-06T03:22:23.819Z,8.80
2018-11-06T03:24:51.164Z,8.70
2018-11-06T03:27:18.546Z,8.70
2018-11-06T03:29:45.889Z,8.60
2018-11-06T03:32:13.230Z,8.60
2018-11-06T03:34:40.587Z,8.50
2018-11-06T03:37:07.963Z,8.60
2018-11-06T03:39:35.305Z,8.60
2018-11-06T03:42:02.663Z,8.50
2018-11-06T03:44:30.051Z,8.50
2018-11-06T03:46:57.415Z,8.60
2018-11-06T03:49:24.763Z,8.50
2018-11-06T03:51:52.117Z,8.70
2018-11-06T03:54:19.455Z,8.80
2018-11-06T03:56:46.828Z,8.70
2018-11-06T03:59:14.177Z,8.60
2018-11-06T04:01:41.519Z,8.60
2018-11-06T04:04:08.899Z,8.50
2018-11-06T04:06:36.261Z,8.60
2018-11-06T04:09:07.064Z,8.50
2018-11-06T04:11:34.416Z,8.40
2018-11-06T04:14:01.772Z,8.40
2018-11-06T04:16:29.126Z,8.50
2018-11-06T04:18:56.466Z,8.50
2018-11-06T04:21:23.820Z,8.50
2018-11-06T04:23:51.161Z,8.50
2018-11-06T04:26:18.543Z,8.50
2018-11-06T04:28:45.881Z,8.50
2018-11-06T04:31:13.230Z,8.50
2018-11-06T04:33:40.598Z,8.40
2018-11-06T04:36:07.958Z,8.40
2018-11-06T04:38:35.315Z,8.30
2018-11-06T04:41:02.664Z,8.30
2018-11-06T04:43:30.034Z,8.20
2018-11-06T04:45:57.359Z,8.20
2018-11-06T04:48:24.711Z,8.20
2018-11-06T04:50:52.052Z,8.20
2018-11-06T04:53:19.413Z,8.30
2018-11-06T04:55:46.750Z,8.40
2018-11-06T04:58:14.108Z,8.40
2018-11-06T05:00:41.483Z,8.40
2018-11-06T05:03:08.814Z,8.40
2018-11-06T05:05:36.191Z,8.20
2018-11-06T05:08:03.552Z,8.00
2018-11-06T05:10:30.891Z,8.00
2018-11-06T05:12:58.275Z,7.90
2018-11-06T05:15:25.640Z,7.90
2018-11-06T05:17:53.034Z,7.80
2018-11-06T05:20:20.399Z,7.90
2018-11-06T05:22:47.742Z,8.10
2018-11-06T05:25:15.179Z,8.00
2018-11-06T05:27:42.470Z,8.20
2018-11-06T05:30:09.821Z,8.20
2018-11-06T05:32:37.194Z,8.20
2018-11-06T05:35:05.672Z,8.20
2018-11-06T05:37:33.042Z,8.10
2018-11-06T05:41:09.253Z,7.90
2018-11-06T05:43:36.613Z,7.90
2018-11-06T05:46:03.983Z,8.00
2018-11-06T05:48:31.352Z,8.00
2018-11-06T05:50:58.781Z,8.00
2018-11-06T05:53:26.134Z,8.10
2018-11-06T05:55:53.499Z,8.10
2018-11-06T05:58:20.865Z,8.00
2018-11-06T06:00:48.232Z,7.90
2018-11-06T06:03:15.599Z,8.00
2018-11-06T06:05:42.934Z,8.10
2018-11-06T06:08:10.298Z,8.20
2018-11-06T06:20:37.660Z,8.30
2018-11-06T06:23:05.251Z,8.30
2018-11-06T06:25:32.589Z,8.40
2018-11-06T06:27:59.936Z,8.60
2018-11-06T06:30:27.292Z,8.60
2018-11-06T06:32:54.601Z,8.50
2018-11-06T06:35:21.954Z,8.40
2018-11-06T06:37:49.260Z,8.40
2018-11-06T06:40:16.664Z,8.40
2018-11-06T06:42:43.929Z,8.50
2018-11-06T06:45:11.645Z,8.50
2018-11-06T06:47:38.974Z,8.40
2018-11-06T06:50:07.936Z,8.20
2018-11-06T06:52:35.306Z,8.40
2018-11-06T06:55:02.773Z,8.30
2018-11-06T06:57:30.000Z,8.20
2018-11-06T06:59:59.730Z,8.30
2018-11-06T07:02:27.185Z,8.40
2018-11-06T07:04:54.531Z,8.40
2018-11-06T07:07:21.873Z,8.50
2018-11-06T07:09:49.220Z,8.50
2018-11-06T07:12:16.554Z,8.60
2018-11-06T07:14:43.881Z,8.60
2018-11-06T07:17:11.247Z,8.60
2018-11-06T07:19:38.577Z,8.70
2018-11-06T07:22:05.909Z,8.70
2018-11-06T07:24:33.251Z,8.70
2018-11-06T07:27:00.611Z,8.70
2018-11-06T07:29:27.977Z,8.90
2018-11-06T07:31:55.325Z,8.90
2018-11-06T07:34:22.753Z,8.80
2018-11-06T07:36:50.080Z,8.90
2018-11-06T07:39:17.584Z,9.00
2018-11-06T07:41:44.959Z,9.00
2018-11-06T07:44:12.326Z,9.00
2018-11-06T07:46:39.681Z,9.10
2018-11-06T07:49:07.041Z,9.30
2018-11-06T07:51:34.376Z,9.40
2018-11-06T07:54:01.698Z,9.30
2018-11-06T07:56:29.028Z,9.40
2018-11-06T07:58:56.432Z,9.40
2018-11-06T08:01:23.788Z,9.50
2018-11-06T08:03:51.132Z,9.70
2018-11-06T08:06:18.604Z,9.80
2018-11-06T08:08:45.918Z,9.90
2018-11-06T08:11:13.276Z,10.00
2018-11-06T08:13:40.686Z,10.20
2018-11-06T08:16:08.065Z,10.30
2018-11-06T08:18:35.704Z,10.50
2018-11-06T08:21:03.137Z,10.60
2018-11-06T08:23:30.480Z,10.80
2018-11-06T08:25:57.813Z,10.90
2018-11-06T08:28:25.163Z,11.00
2018-11-06T08:30:52.777Z,11.10
2018-11-06T08:33:19.896Z,11.20
2018-11-06T08:35:47.268Z,11.30
2018-11-06T08:38:14.613Z,11.50
2018-11-06T08:40:41.971Z,11.60
2018-11-06T08:43:09.297Z,11.70
2018-11-06T08:45:36.673Z,11.90
2018-11-06T08:48:04.834Z,12.00
2018-11-06T08:50:32.181Z,12.10
2018-11-06T08:52:59.584Z,12.20
2018-11-06T08:55:26.934Z,12.40
2018-11-06T08:57:54.272Z,12.60
2018-11-06T09:00:21.634Z,12.70
2018-11-06T09:02:49.491Z,12.80
2018-11-06T09:05:16.820Z,13.00
2018-11-06T09:07:44.152Z,13.00
2018-11-06T09:10:11.491Z,12.90
2018-11-06T09:12:38.860Z,12.90
2018-11-06T09:15:07.601Z,12.90
2018-11-06T09:17:34.927Z,12.90
2018-11-06T09:20:02.305Z,13.00
2018-11-06T09:22:29.634Z,13.10
2018-11-06T09:24:56.994Z,13.20
2018-11-06T09:27:24.329Z,13.20
2018-11-06T09:29:51.682Z,13.20
2018-11-06T09:32:19.012Z,13.20
2018-11-06T09:34:46.405Z,13.30
2018-11-06T09:37:13.751Z,13.30
2018-11-06T09:39:41.104Z,13.40
2018-11-06T09:42:08.453Z,13.40
2018-11-06T09:44:35.794Z,13.50
2018-11-06T09:47:03.222Z,13.60
2018-11-06T09:49:30.556Z,13.70
2018-11-06T09:51:57.985Z,13.90
2018-11-06T09:54:25.260Z,13.90
2018-11-06T09:56:52.628Z,14.00
2018-11-06T09:59:19.981Z,14.00
2018-11-06T10:01:47.295Z,14.00
2018-11-06T10:04:14.652Z,14.10
2018-11-06T10:06:42.226Z,14.20
2018-11-06T10:09:09.440Z,14.30
2018-11-06T10:11:36.787Z,14.30
2018-11-06T10:14:04.438Z,14.40
2018-11-06T10:16:31.796Z,14.60
2018-11-06T10:18:59.150Z,14.60
2018-11-06T10:21:26.620Z,14.60
2018-11-06T10:23:53.879Z,14.70
2018-11-06T10:26:21.206Z,14.70
2018-11-06T10:28:48.547Z,14.80
2018-11-06T10:31:15.864Z,14.90
2018-11-06T10:33:43.216Z,14.90
2018-11-06T10:36:10.558Z,14.90
2018-11-06T10:38:37.900Z,14.90
2018-11-06T10:41:05.272Z,14.80
2018-11-06T10:43:32.633Z,14.90
2018-11-06T10:45:59.980Z,15.10
2018-11-06T10:48:27.333Z,15.20
2018-11-06T10:50:54.660Z,15.30
2018-11-06T10:53:22.022Z,15.40
2018-11-06T10:55:49.378Z,15.50
2018-11-06T10:58:16.780Z,15.70
2018-11-06T11:00:44.089Z,15.70
2018-11-06T11:03:11.439Z,15.80
2018-11-06T11:05:39.314Z,15.80
2018-11-06T11:08:06.681Z,15.80
2018-11-06T11:10:34.028Z,15.80
2018-11-06T11:13:01.640Z,16.00
2018-11-06T11:15:30.420Z,16.00
2018-11-06T11:17:58.533Z,15.90
2018-11-06T11:20:26.473Z,15.80
2018-11-06T11:22:54.271Z,15.90
2018-11-06T11:25:21.639Z,15.90
2018-11-06T11:27:49.144Z,16.00
2018-11-06T11:30:16.524Z,16.10
2018-11-06T11:32:43.933Z,16.10
2018-11-06T11:35:11.308Z,16.10
2018-11-06T11:37:38.713Z,16.10
2018-11-06T11:40:07.128Z,16.20
2018-11-06T11:42:34.481Z,16.30
2018-11-06T11:45:01.825Z,16.20
2018-11-06T11:47:29.163Z,16.40
2018-11-06T11:49:56.724Z,16.60
2018-11-06T11:52:24.103Z,16.70
2018-11-06T11:54:51.485Z,16.80
2018-11-06T11:57:18.869Z,16.90
2018-11-06T11:59:46.240Z,17.00
2018-11-06T12:02:13.639Z,17.00
2018-11-06T12:04:40.946Z,17.10
2018-11-06T12:07:08.292Z,17.20
2018-11-06T12:09:35.635Z,17.30
2018-11-06T12:12:02.961Z,17.20
2018-11-06T12:14:30.317Z,17.30
2018-11-06T12:16:58.247Z,17.30
2018-11-06T12:19:25.575Z,17.30
2018-11-06T12:21:52.910Z,17.40
2018-11-06T12:24:20.286Z,17.30
2018-11-06T12:26:47.621Z,17.30
2018-11-06T12:29:14.980Z,17.20
2018-11-06T12:31:42.326Z,17.30
2018-11-06T12:34:09.654Z,17.30
2018-11-06T12:36:37.092Z,17.30
2018-11-06T12:39:06.235Z,17.30
2018-11-06T12:41:33.587Z,17.50
2018-11-06T12:44:00.936Z,17.50
2018-11-06T12:46:28.314Z,17.50
2018-11-06T12:48:55.647Z,17.60
2018-11-06T12:51:23.002Z,17.70
2018-11-06T12:53:50.355Z,17.70
2018-11-06T12:56:17.704Z,17.70
2018-11-06T12:58:45.020Z,17.80
2018-11-06T13:01:12.360Z,17.90
2018-11-06T13:03:39.692Z,17.90
2018-11-06T13:06:07.052Z,17.70
2018-11-06T13:08:34.404Z,17.70
2018-11-06T13:11:01.816Z,17.70
2018-11-06T13:13:29.169Z,17.70
2018-11-06T13:15:56.537Z,17.80
2018-11-06T13:18:23.864Z,17.80
2018-11-06T13:20:51.184Z,17.90
2018-11-06T13:23:18.513Z,17.90
2018-11-06T13:25:45.930Z,18.00
2018-11-06T13:28:13.177Z,18.00
2018-11-06T13:30:40.533Z,18.00
2018-11-06T13:33:07.836Z,17.90
2018-11-06T13:35:35.703Z,17.90
2018-11-06T13:38:03.053Z,18.10
2018-11-06T13:40:30.371Z,18.10
2018-11-06T13:42:57.904Z,18.10
2018-11-06T13:45:25.219Z,18.20
2018-11-06T13:47:52.394Z,18.10
2018-11-06T13:50:19.764Z,18.20
2018-11-06T13:52:47.104Z,18.10
2018-11-06T13:55:14.433Z,18.10
2018-11-06T13:57:41.853Z,18.10
2018-11-06T14:00:11.323Z,18.00
2018-11-06T14:02:38.755Z,18.00
2018-11-06T14:05:06.109Z,18.10
2018-11-06T14:07:33.692Z,18.10
2018-11-06T14:10:01.075Z,18.00
2018-11-06T14:12:28.398Z,17.90
2018-11-06T14:14:55.737Z,17.90
2018-11-06T14:17:23.087Z,18.00
2018-11-06T14:19:50.443Z,17.90
2018-11-06T14:22:17.744Z,17.90
2018-11-06T14:24:45.108Z,17.80
2018-11-06T14:27:12.489Z,17.80
2018-11-06T14:29:39.756Z,17.70
2018-11-06T14:32:07.136Z,17.70
2018-11-06T14:34:34.465Z,17.70
2018-11-06T14:37:01.931Z,17.70
2018-11-06T14:39:29.306Z,17.60
2018-11-06T14:41:56.688Z,17.70
2018-11-06T14:44:24.211Z,17.70
2018-11-06T14:46:51.660Z,17.70
2018-11-06T14:49:19.056Z,17.50
2018-11-06T14:51:46.431Z,17.40
2018-11-06T14:54:13.793Z,17.40
2018-11-06T14:56:41.169Z,17.30
2018-11-06T14:59:08.524Z,17.30
2018-11-06T15:01:35.937Z,17.30
2018-11-06T15:04:03.264Z,17.30
2018-11-06T15:06:30.652Z,17.20
2018-11-06T15:08:58.069Z,17.10
2018-11-06T15:11:25.414Z,17.00
2018-11-06T15:13:52.755Z,17.10
2018-11-06T15:16:20.071Z,17.00
2018-11-06T15:18:47.396Z,16.90
2018-11-06T15:21:14.761Z,16.80
2018-11-06T15:23:42.078Z,16.80
2018-11-06T15:26:09.433Z,16.70
2018-11-06T15:28:36.833Z,16.70
2018-11-06T15:31:04.666Z,16.50
2018-11-06T15:33:32.010Z,16.40
2018-11-06T15:35:59.357Z,16.40
2018-11-06T15:38:26.685Z,16.40
2018-11-06T15:40:54.143Z,16.30
2018-11-06T15:43:21.433Z,16.30
2018-11-06T15:45:48.845Z,16.20
2018-11-06T15:48:16.204Z,16.20
2018-11-06T15:50:43.866Z,16.10
2018-11-06T15:53:11.253Z,16.10
2018-11-06T15:55:38.637Z,16.10
2018-11-06T15:58:05.962Z,16.00
2018-11-06T16:00:33.331Z,16.00
2018-11-06T16:03:00.667Z,15.80
2018-11-06T16:05:28.029Z,15.70
2018-11-06T16:07:55.389Z,15.60
2018-11-06T16:10:22.778Z,15.60
2018-11-06T16:12:50.131Z,15.50
2018-11-06T16:15:17.576Z,15.40
2018-11-06T16:17:44.928Z,15.20
2018-11-06T16:20:12.284Z,15.10
2018-11-06T16:22:39.624Z,15.00
2018-11-06T16:25:08.343Z,15.00
2018-11-06T16:27:35.698Z,14.90
2018-11-06T16:30:03.053Z,14.90
2018-11-06T16:32:30.420Z,14.90
2018-11-06T16:34:57.763Z,14.90
2018-11-06T16:37:25.108Z,14.70
2018-11-06T16:39:52.464Z,14.40
2018-11-06T16:42:19.810Z,14.30
2018-11-06T16:44:47.149Z,14.30
2018-11-06T16:47:14.911Z,14.20
2018-11-06T16:49:42.252Z,14.10
2018-11-06T16:52:09.644Z,14.10
2018-11-06T16:54:37.035Z,14.20
2018-11-06T16:57:04.398Z,14.20
2018-11-06T16:59:31.855Z,14.00
2018-11-06T17:01:59.174Z,14.00
2018-11-06T17:04:26.617Z,14.10
2018-11-06T17:06:53.940Z,14.00
2018-11-06T17:09:21.349Z,14.00
2018-11-06T17:11:48.706Z,13.90
2018-11-06T17:14:16.126Z,13.90
2018-11-06T17:16:43.571Z,13.90
2018-11-06T17:19:10.973Z,13.70
2018-11-06T17:21:38.300Z,13.70
2018-11-06T17:24:05.628Z,13.50
2018-11-06T17:26:33.057Z,13.60
2018-11-06T17:29:00.392Z,13.40
2018-11-06T17:31:27.726Z,13.50
2018-11-06T17:33:55.133Z,13.50
2018-11-06T17:36:22.536Z,13.40
2018-11-06T17:38:49.896Z,13.30
2018-11-06T17:41:17.243Z,13.10
2018-11-06T17:43:44.625Z,13.10
2018-11-06T17:46:12.020Z,13.20
2018-11-06T17:48:39.411Z,13.10
2018-11-06T17:51:06.747Z,13.20
2018-11-06T17:53:34.125Z,13.00
2018-11-06T17:56:01.561Z,12.90
2018-11-06T17:58:28.888Z,12.90
2018-11-06T18:00:56.281Z,12.80
2018-11-06T18:03:23.622Z,12.90
2018-11-06T18:05:50.999Z,13.00
2018-11-06T18:08:18.408Z,13.10
2018-11-06T18:10:45.868Z,12.90
2018-11-06T18:13:13.121Z,12.70
2018-11-06T18:15:40.467Z,12.80
2018-11-06T18:18:07.803Z,12.80
2018-11-06T18:20:35.126Z,12.70
2018-11-06T18:23:02.484Z,12.70
2018-11-06T18:25:29.965Z,12.50
2018-11-06T18:27:57.192Z,12.50
2018-11-06T18:30:24.519Z,12.50
2018-11-06T18:32:51.847Z,12.40
2018-11-06T18:35:19.228Z,12.50
2018-11-06T18:37:46.697Z,12.40
2018-11-06T18:40:14.979Z,12.40
2018-11-06T18:42:42.377Z,12.40
2018-11-06T18:45:09.704Z,12.30
2018-11-06T18:47:37.091Z,12.40
2018-11-06T18:50:05.911Z,12.30
2018-11-06T18:52:33.294Z,12.30
2018-11-06T18:55:00.625Z,12.30
2018-11-06T18:57:28.139Z,12.40
2018-11-06T18:59:55.494Z,12.30
2018-11-06T19:02:22.833Z,12.30
2018-11-06T19:04:50.215Z,12.30
2018-11-06T19:07:17.498Z,12.40
2018-11-06T19:09:44.971Z,12.40
2018-11-06T19:12:12.505Z,12.30
2018-11-06T19:14:39.884Z,12.30
2018-11-06T19:17:08.029Z,12.30
2018-11-06T19:19:35.519Z,12.20
2018-11-06T19:22:02.880Z,12.20
2018-11-06T19:24:30.310Z,12.20
2018-11-06T19:26:57.782Z,12.20
2018-11-06T19:29:25.343Z,12.10
2018-11-06T19:31:52.772Z,12.20
2018-11-06T19:34:20.229Z,12.10
2018-11-06T19:36:47.714Z,12.20
2018-11-06T19:39:15.362Z,12.30
2018-11-06T19:41:42.931Z,12.20
2018-11-06T19:44:10.391Z,12.00
2018-11-06T19:46:37.721Z,12.00
2018-11-06T19:49:05.137Z,12.00
2018-11-06T19:51:32.552Z,12.00
2018-11-06T19:54:00.345Z,12.00
2018-11-06T19:56:28.036Z,12.00
2018-11-06T19:58:55.415Z,12.00
2018-11-06T20:01:22.881Z,12.00
2018-11-06T20:03:51.212Z,12.00
2018-11-06T20:06:18.710Z,12.00
2018-11-06T20:08:47.100Z,11.90
2018-11-06T20:11:14.894Z,11.90
2018-11-06T20:13:42.537Z,11.80
2018-11-06T20:16:09.980Z,11.80
2018-11-06T20:18:37.429Z,11.80
2018-11-06T20:21:05.693Z,11.80
2018-11-06T20:23:33.076Z,11.80
2018-11-06T20:26:00.645Z,11.80
2018-11-06T20:28:28.048Z,11.90
2018-11-06T20:30:55.461Z,11.90
2018-11-06T20:33:23.831Z,12.00
2018-11-06T20:35:51.297Z,12.00
2018-11-06T20:38:18.770Z,12.00
2018-11-06T20:40:46.139Z,11.90
2018-11-06T20:43:13.699Z,11.80
2018-11-06T20:45:41.032Z,11.80
2018-11-06T20:48:08.407Z,11.80
2018-11-06T20:50:36.030Z,11.80
2018-11-06T20:53:04.464Z,11.70
2018-11-06T20:55:31.830Z,11.60
2018-11-06T20:57:59.200Z,11.60
2018-11-06T21:00:27.098Z,11.70
2018-11-06T21:02:54.696Z,11.70
2018-11-06T21:05:22.119Z,11.80
2018-11-06T21:07:49.478Z,11.80
2018-11-06T21:10:16.945Z,11.80
2018-11-06T21:12:44.410Z,11.70
2018-11-06T21:15:11.761Z,11.70
2018-11-06T21:17:39.326Z,11.60
2018-11-06T21:20:07.607Z,11.60
2018-11-06T21:22:34.980Z,11.60
2018-11-06T21:25:02.416Z,11.60
2018-11-06T21:27:29.780Z,11.60
2018-11-06T21:29:57.149Z,11.60
2018-11-06T21:32:24.482Z,11.50
2018-11-06T21:34:51.805Z,11.40
2018-11-06T21:37:19.197Z,11.40
2018-11-06T21:39:46.636Z,11.40
2018-11-06T21:42:14.010Z,11.30
2018-11-06T21:44:41.438Z,11.20
2018-11-06T21:47:08.771Z,11.20
2018-11-06T21:49:36.122Z,11.20
2018-11-06T21:52:03.503Z,11.20
2018-11-06T21:54:30.793Z,11.20
2018-11-06T21:56:58.152Z,11.20
2018-11-06T21:59:25.468Z,11.10
2018-11-06T22:01:52.824Z,11.10
2018-11-06T22:04:20.176Z,11.00
2018-11-06T22:06:47.505Z,11.00
2018-11-06T22:09:14.908Z,11.00
2018-11-06T22:11:42.261Z,11.10
2018-11-06T22:14:09.635Z,11.20
2018-11-06T22:16:36.969Z,11.20
2018-11-06T22:19:04.344Z,11.10
2018-11-06T22:21:31.714Z,11.20
2018-11-06T22:23:59.037Z,11.10
2018-11-06T22:26:26.384Z,11.00
2018-11-06T22:28:53.730Z,11.00
2018-11-06T22:31:21.148Z,10.90
2018-11-06T22:33:48.370Z,10.90
2018-11-06T22:36:15.708Z,10.90
2018-11-06T22:38:43.023Z,11.00
2018-11-06T22:41:10.356Z,10.90
2018-11-06T22:43:37.688Z,11.00
2018-11-06T22:46:05.042Z,11.10
2018-11-06T22:48:32.412Z,11.20
2018-11-06T22:50:59.753Z,11.20
2018-11-06T22:53:27.104Z,11.20
2018-11-06T22:55:54.462Z,11.20
2018-11-06T22:58:21.779Z,11.30
2018-11-06T23:00:49.108Z,11.30
2018-11-06T23:03:16.445Z,11.20
2018-11-06T23:05:43.800Z,11.20
2018-11-06T23:08:11.111Z,11.20
2018-11-06T23:10:38.467Z,11.20
2018-11-06T23:13:05.827Z,11.10
2018-11-06T23:15:33.167Z,11.10
2018-11-06T23:18:00.509Z,11.10
2018-11-06T23:20:27.897Z,11.10
2018-11-06T23:22:55.181Z,11.00
2018-11-06T23:25:22.507Z,10.90
2018-11-06T23:27:49.840Z,11.00
2018-11-06T23:30:17.168Z,11.00
2018-11-06T23:32:44.506Z,11.00
2018-11-06T23:35:11.885Z,11.00
2018-11-06T23:37:39.239Z,10.90
2018-11-06T23:40:06.593Z,10.90
2018-11-06T23:42:33.915Z,10.90
2018-11-06T23:45:01.244Z,10.80
2018-11-06T23:47:28.564Z,10.90
2018-11-06T23:49:55.907Z,10.80
2018-11-06T23:52:23.224Z,10.60
2018-11-06T23:54:50.569Z,10.50
2018-11-06T23:57:18.307Z,10.40
2018-11-06T23:59:45.631Z,10.50
